KJKA

Jack Edwards Airport

Gulf Shores, Alabama, USA
METAR KJKA 181455Z AUTO 01006KT 10SM CLR M03/M10 A3054 RMK AO2 T10291102
Observed Flight Rules
Jan-18 @ 14:55 UTC (26 minutes ago) Visual Flight Rules
Wind Visibility Clouds
10° at 6 knots 10 miles
  • Clear skies
Temperatures Readings
Current -3°C / 27°F
Dewpoint -10°C / 14°F
Humidity 59%
Altimeter 30.54" Hg
Pressure 1034 hPa
Elevation 5
METAR KJKA 181455Z AUTO 01006KT 10SM CLR M03/M10 A3054 RMK AO2 T10291102
Observed Flight Rules
Jan-18 @ 14:55 UTC
(26 minutes ago)
VFR
Wind Visibility
10° at 6 knots 10 miles
Clouds
  • Clear skies
Temperature Dewpoint
-3°C / 27°F -10°C / 14°F
Humidity Altimeter Pressure
59% 30.54" Hg 1034 hPa